Genoa, Wisconsin
Current Conditions -  °F | °C
As of 10:35 PM on Thursday 30 Oct 2014 (Local Time) from KY51 Reporting Station
Overcast Overcast  
Wind Chill: 33°   Ceiling: 3900
Heat Index: 41°   Visibility: 10mi
Dew Point: 31°   Wind: 14mph
Humidity: 68%   Direction: 330°NNW
Pressure: 30.13"   Gusts: 20mph
Location:  43.58°N, 91.22°W
Report Text: KY51 310335Z AUTO 33012G17KT 10SM BKN039 OVC045 05/00 A3013 RMK AO1 T00501005
Loading
Personal Weather Stations






























Interactive Weather Map
Tropical Storm Tracking
New forecast layout! Learn more

10-Day Weather Forecast

Advertisements
Track Severe Weather on mobile